sensor_id;sensor_type;location;lat;lon;timestamp;pressure;altitude;pressure_sealevel;temperature;humidity
75013;BME280;63567;49.956;20.130;2023-06-01T00:01:57;97239.94;;;14.77;54.04
75013;BME280;63567;49.956;20.130;2023-06-01T00:04:22;97240.13;;;14.76;53.99
75013;BME280;63567;49.956;20.130;2023-06-01T00:06:48;97236.88;;;14.74;54.45
75013;BME280;63567;49.956;20.130;2023-06-01T00:09:13;97232.59;;;14.73;54.34
75013;BME280;63567;49.956;20.130;2023-06-01T00:11:38;97229.75;;;14.68;54.42
75013;BME280;63567;49.956;20.130;2023-06-01T00:14:03;97231.19;;;14.64;54.36
75013;BME280;63567;49.956;20.130;2023-06-01T00:16:29;97229.38;;;14.64;54.18
75013;BME280;63567;49.956;20.130;2023-06-01T00:18:56;97227.97;;;14.62;54.40
75013;BME280;63567;49.956;20.130;2023-06-01T00:21:22;97231.00;;;14.58;54.86
75013;BME280;63567;49.956;20.130;2023-06-01T00:23:48;97231.44;;;14.55;54.72
75013;BME280;63567;49.956;20.130;2023-06-01T00:26:14;97229.38;;;14.51;54.59
75013;BME280;63567;49.956;20.130;2023-06-01T00:28:40;97235.91;;;14.48;54.91
75013;BME280;63567;49.956;20.130;2023-06-01T00:31:06;97226.94;;;14.49;54.84
75013;BME280;63567;49.956;20.130;2023-06-01T00:33:31;97231.03;;;14.45;55.16
75013;BME280;63567;49.956;20.130;2023-06-01T00:35:56;97234.69;;;14.44;55.28
75013;BME280;63567;49.956;20.130;2023-06-01T00:38:22;97221.66;;;14.43;55.21
75013;BME280;63567;49.956;20.130;2023-06-01T00:40:47;97235.31;;;14.39;54.86
75013;BME280;63567;49.956;20.130;2023-06-01T00:43:15;97235.53;;;14.38;55.02
75013;BME280;63567;49.956;20.130;2023-06-01T00:45:40;97218.44;;;14.27;55.67
75013;BME280;63567;49.956;20.130;2023-06-01T00:48:06;97230.03;;;14.33;55.06
75013;BME280;63567;49.956;20.130;2023-06-01T00:50:32;97229.63;;;14.29;55.55
75013;BME280;63567;49.956;20.130;2023-06-01T00:52:58;97234.94;;;14.29;55.54
75013;BME280;63567;49.956;20.130;2023-06-01T00:55:26;97231.06;;;14.25;55.56
75013;BME280;63567;49.956;20.130;2023-06-01T00:57:52;97232.88;;;14.25;55.80
75013;BME280;63567;49.956;20.130;2023-06-01T01:00:19;97223.31;;;14.24;55.77
75013;BME280;63567;49.956;20.130;2023-06-01T01:02:45;97225.16;;;14.23;55.48
75013;BME280;63567;49.956;20.130;2023-06-01T01:05:14;97222.28;;;14.18;55.58
75013;BME280;63567;49.956;20.130;2023-06-01T01:08:07;97227.59;;;14.18;55.44
75013;BME280;63567;49.956;20.130;2023-06-01T01:10:50;97213.56;;;14.11;55.64
75013;BME280;63567;49.956;20.130;2023-06-01T01:13:37;97222.53;;;14.10;55.69
75013;BME280;63567;49.956;20.130;2023-06-01T01:16:26;97224.78;;;14.06;55.84
75013;BME280;63567;49.956;20.130;2023-06-01T01:21:49;97223.53;;;14.02;55.54
75013;BME280;63567;49.956;20.130;2023-06-01T01:24:31;97211.34;;;13.94;55.96
75013;BME280;63567;49.956;20.130;2023-06-01T01:29:52;97217.22;;;13.96;56.09
75013;BME280;63567;49.956;20.130;2023-06-01T01:32:19;97219.06;;;13.96;55.75
75013;BME280;63567;49.956;20.130;2023-06-01T01:34:45;97206.63;;;13.90;55.85
75013;BME280;63567;49.956;20.130;2023-06-01T01:37:12;97204.41;;;13.87;56.00
75013;BME280;63567;49.956;20.130;2023-06-01T01:39:37;97213.38;;;13.92;56.30
75013;BME280;63567;49.956;20.130;2023-06-01T01:42:03;97213.16;;;13.94;56.01
75013;BME280;63567;49.956;20.130;2023-06-01T01:44:28;97217.44;;;13.95;56.37
75013;BME280;63567;49.956;20.130;2023-06-01T01:47:05;97208.28;;;13.91;55.97
75013;BME280;63567;49.956;20.130;2023-06-01T01:49:41;97200.53;;;13.83;56.14
75013;BME280;63567;49.956;20.130;2023-06-01T01:52:15;97205.84;;;13.89;56.44
75013;BME280;63567;49.956;20.130;2023-06-01T01:54:43;97206.25;;;13.93;56.28
75013;BME280;63567;49.956;20.130;2023-06-01T01:57:14;97208.69;;;13.88;56.32
75013;BME280;63567;49.956;20.130;2023-06-01T01:59:40;97190.97;;;13.82;56.02
75013;BME280;63567;49.956;20.130;2023-06-01T02:02:06;97199.94;;;13.81;56.39
75013;BME280;63567;49.956;20.130;2023-06-01T02:04:32;97209.50;;;13.82;56.58
75013;BME280;63567;49.956;20.130;2023-06-01T02:06:57;97190.38;;;13.73;56.48
75013;BME280;63567;49.956;20.130;2023-06-01T02:09:22;97198.09;;;13.74;56.75
75013;BME280;63567;49.956;20.130;2023-06-01T02:11:48;97195.44;;;13.74;56.84
75013;BME280;63567;49.956;20.130;2023-06-01T02:14:13;97180.19;;;13.70;56.80
75013;BME280;63567;49.956;20.130;2023-06-01T02:16:38;97186.69;;;13.74;56.64
75013;BME280;63567;49.956;20.130;2023-06-01T02:19:03;97183.44;;;13.72;56.60
75013;BME280;63567;49.956;20.130;2023-06-01T02:21:29;97177.34;;;13.71;56.75
75013;BME280;63567;49.956;20.130;2023-06-01T02:23:56;97179.56;;;13.68;56.79
75013;BME280;63567;49.956;20.130;2023-06-01T02:26:23;97178.34;;;13.64;57.06
75013;BME280;63567;49.956;20.130;2023-06-01T02:28:48;97173.28;;;13.62;56.81
75013;BME280;63567;49.956;20.130;2023-06-01T02:31:13;97173.88;;;13.58;57.18
75013;BME280;63567;49.956;20.130;2023-06-01T02:33:42;97145.16;;;13.48;57.14
75013;BME280;63567;49.956;20.130;2023-06-01T02:36:07;97154.31;;;13.52;56.82
75013;BME280;63567;49.956;20.130;2023-06-01T02:38:32;97166.53;;;13.53;56.55
75013;BME280;63567;49.956;20.130;2023-06-01T02:40:58;97170.81;;;13.54;57.17
75013;BME280;63567;49.956;20.130;2023-06-01T02:43:23;97157.78;;;13.52;57.28
75013;BME280;63567;49.956;20.130;2023-06-01T02:45:48;97167.38;;;13.53;56.90
75013;BME280;63567;49.956;20.130;2023-06-01T02:48:13;97157.97;;;13.38;57.36
75013;BME280;63567;49.956;20.130;2023-06-01T02:50:39;97147.00;;;13.34;57.41
75013;BME280;63567;49.956;20.130;2023-06-01T02:53:05;97159.00;;;13.43;57.80
75013;BME280;63567;49.956;20.130;2023-06-01T02:55:30;97163.50;;;13.43;57.79
75013;BME280;63567;49.956;20.130;2023-06-01T02:57:55;97150.84;;;13.31;57.39
75013;BME280;63567;49.956;20.130;2023-06-01T03:00:21;97156.97;;;13.32;57.79
75013;BME280;63567;49.956;20.130;2023-06-01T03:02:47;97159.38;;;13.33;58.21
75013;BME280;63567;49.956;20.130;2023-06-01T03:05:13;97157.34;;;13.35;57.84
75013;BME280;63567;49.956;20.130;2023-06-01T03:07:43;97157.34;;;13.35;57.80
75013;BME280;63567;49.956;20.130;2023-06-01T03:10:09;97157.97;;;13.31;57.94
75013;BME280;63567;49.956;20.130;2023-06-01T03:12:34;97154.31;;;13.32;58.21
75013;BME280;63567;49.956;20.130;2023-06-01T03:15:00;97167.31;;;13.33;57.77
75013;BME280;63567;49.956;20.130;2023-06-01T03:17:25;97155.13;;;13.32;58.09
75013;BME280;63567;49.956;20.130;2023-06-01T03:19:51;97162.66;;;13.29;57.61
75013;BME280;63567;49.956;20.130;2023-06-01T03:22:16;97168.94;;;13.28;58.14
75013;BME280;63567;49.956;20.130;2023-06-01T03:24:41;97160.19;;;13.27;58.03
75013;BME280;63567;49.956;20.130;2023-06-01T03:27:07;97167.09;;;13.22;58.46
75013;BME280;63567;49.956;20.130;2023-06-01T03:29:32;97161.00;;;13.21;58.34
75013;BME280;63567;49.956;20.130;2023-06-01T03:31:58;97157.31;;;13.22;58.42
75013;BME280;63567;49.956;20.130;2023-06-01T03:34:23;97159.97;;;13.22;58.18
75013;BME280;63567;49.956;20.130;2023-06-01T03:36:48;97146.72;;;13.15;58.20
75013;BME280;63567;49.956;20.130;2023-06-01T03:39:14;97156.50;;;13.15;58.57
75013;BME280;63567;49.956;20.130;2023-06-01T03:41:44;97146.34;;;13.19;58.48
75013;BME280;63567;49.956;20.130;2023-06-01T03:44:10;97158.13;;;13.23;58.84
75013;BME280;63567;49.956;20.130;2023-06-01T03:46:35;97158.75;;;13.25;59.10
75013;BME280;63567;49.956;20.130;2023-06-01T03:49:01;97152.91;;;13.29;59.17
75013;BME280;63567;49.956;20.130;2023-06-01T03:51:26;97152.69;;;13.31;59.03
75013;BME280;63567;49.956;20.130;2023-06-01T03:53:52;97146.78;;;13.29;59.11
75013;BME280;63567;49.956;20.130;2023-06-01T03:56:17;97151.25;;;13.35;58.81
75013;BME280;63567;49.956;20.130;2023-06-01T03:58:44;97149.41;;;13.35;58.89
75013;BME280;63567;49.956;20.130;2023-06-01T04:01:10;97149.22;;;13.37;58.65
75013;BME280;63567;49.956;20.130;2023-06-01T04:03:37;97149.66;;;13.34;59.00
75013;BME280;63567;49.956;20.130;2023-06-01T04:06:02;97148.81;;;13.33;59.05
75013;BME280;63567;49.956;20.130;2023-06-01T04:08:28;97155.56;;;13.43;59.50
75013;BME280;63567;49.956;20.130;2023-06-01T04:10:54;97152.91;;;13.43;58.96
75013;BME280;63567;49.956;20.130;2023-06-01T04:13:19;97142.09;;;13.44;59.05
75013;BME280;63567;49.956;20.130;2023-06-01T04:15:45;97151.88;;;13.44;58.76
75013;BME280;63567;49.956;20.130;2023-06-01T04:18:11;97151.69;;;13.45;59.43
75013;BME280;63567;49.956;20.130;2023-06-01T04:20:36;97152.69;;;13.44;59.26
75013;BME280;63567;49.956;20.130;2023-06-01T04:23:02;97144.53;;;13.46;59.71
75013;BME280;63567;49.956;20.130;2023-06-01T04:25:27;97144.16;;;13.49;60.02
75013;BME280;63567;49.956;20.130;2023-06-01T04:27:53;97150.44;;;13.54;59.98
75013;BME280;63567;49.956;20.130;2023-06-01T04:30:20;97131.50;;;13.51;59.90
75013;BME280;63567;49.956;20.130;2023-06-01T04:32:46;97145.34;;;13.60;59.57
75013;BME280;63567;49.956;20.130;2023-06-01T04:35:13;97136.22;;;13.62;60.02
75013;BME280;63567;49.956;20.130;2023-06-01T04:37:40;97144.53;;;13.66;60.69
75013;BME280;63567;49.956;20.130;2023-06-01T04:40:07;97140.47;;;13.70;60.20
75013;BME280;63567;49.956;20.130;2023-06-01T04:42:40;97137.19;;;13.74;59.70
75013;BME280;63567;49.956;20.130;2023-06-01T04:45:07;97141.06;;;13.79;60.51
75013;BME280;63567;49.956;20.130;2023-06-01T04:47:35;97139.44;;;13.84;60.31
75013;BME280;63567;49.956;20.130;2023-06-01T04:50:08;97135.97;;;13.90;60.37
75013;BME280;63567;49.956;20.130;2023-06-01T04:52:44;97135.75;;;13.92;60.90
75013;BME280;63567;49.956;20.130;2023-06-01T04:55:10;97136.97;;;13.96;60.93
75013;BME280;63567;49.956;20.130;2023-06-01T04:57:38;97136.94;;;14.03;60.97
75013;BME280;63567;49.956;20.130;2023-06-01T05:00:04;97136.13;;;14.02;60.35
75013;BME280;63567;49.956;20.130;2023-06-01T05:02:33;97134.50;;;14.08;60.24
75013;BME280;63567;49.956;20.130;2023-06-01T05:04:58;97124.31;;;14.05;62.01
75013;BME280;63567;49.956;20.130;2023-06-01T05:07:24;97130.81;;;14.15;61.76
75013;BME280;63567;49.956;20.130;2023-06-01T05:09:49;97138.72;;;14.22;61.77
75013;BME280;63567;49.956;20.130;2023-06-01T05:12:15;97139.53;;;14.29;61.62
75013;BME280;63567;49.956;20.130;2023-06-01T05:14:40;97138.69;;;14.35;60.88
75013;BME280;63567;49.956;20.130;2023-06-01T05:17:05;97137.84;;;14.42;61.17
75013;BME280;63567;49.956;20.130;2023-06-01T05:19:30;97131.31;;;14.44;61.76
75013;BME280;63567;49.956;20.130;2023-06-01T05:21:56;97135.16;;;14.48;62.10
75013;BME280;63567;49.956;20.130;2023-06-01T05:24:21;97143.31;;;14.53;61.54
75013;BME280;63567;49.956;20.130;2023-06-01T05:26:46;97136.59;;;14.57;61.70
75013;BME280;63567;49.956;20.130;2023-06-01T05:29:11;97122.75;;;14.55;62.23
75013;BME280;63567;49.956;20.130;2023-06-01T05:31:37;97134.28;;;14.68;62.53
75013;BME280;63567;49.956;20.130;2023-06-01T05:34:02;97129.19;;;14.73;62.69
75013;BME280;63567;49.956;20.130;2023-06-01T05:36:28;97117.97;;;14.71;62.77
75013;BME280;63567;49.956;20.130;2023-06-01T05:38:53;97126.88;;;14.83;62.14
75013;BME280;63567;49.956;20.130;2023-06-01T05:41:19;97123.16;;;14.91;62.32
75013;BME280;63567;49.956;20.130;2023-06-01T05:43:44;97126.81;;;14.96;62.17
75013;BME280;63567;49.956;20.130;2023-06-01T05:46:09;97119.66;;;14.97;62.28
75013;BME280;63567;49.956;20.130;2023-06-01T05:48:35;97117.97;;;15.03;61.63
75013;BME280;63567;49.956;20.130;2023-06-01T05:51:00;97130.94;;;15.17;61.34
75013;BME280;63567;49.956;20.130;2023-06-01T05:53:25;97124.03;;;15.16;61.13
75013;BME280;63567;49.956;20.130;2023-06-01T05:55:52;97135.53;;;15.29;61.30
75013;BME280;63567;49.956;20.130;2023-06-01T05:58:17;97134.47;;;15.36;61.43
75013;BME280;63567;49.956;20.130;2023-06-01T06:00:43;97130.56;;;15.39;61.26
75013;BME280;63567;49.956;20.130;2023-06-01T06:03:08;97125.81;;;15.48;60.54
75013;BME280;63567;49.956;20.130;2023-06-01T06:05:33;97130.41;;;15.59;60.02
75013;BME280;63567;49.956;20.130;2023-06-01T06:07:58;97135.09;;;15.64;59.08
75013;BME280;63567;49.956;20.130;2023-06-01T06:10:24;97132.78;;;15.67;58.67
75013;BME280;63567;49.956;20.130;2023-06-01T06:12:49;97122.75;;;15.69;59.05
75013;BME280;63567;49.956;20.130;2023-06-01T06:15:16;97120.31;;;15.74;58.86
75013;BME280;63567;49.956;20.130;2023-06-01T06:17:42;97130.56;;;15.89;58.00
75013;BME280;63567;49.956;20.130;2023-06-01T06:20:08;97126.44;;;15.93;57.39
75013;BME280;63567;49.956;20.130;2023-06-01T06:22:34;97113.97;;;15.94;56.91
75013;BME280;63567;49.956;20.130;2023-06-01T06:25:00;97123.06;;;16.05;56.19
75013;BME280;63567;49.956;20.130;2023-06-01T06:27:25;97112.06;;;16.01;56.12
75013;BME280;63567;49.956;20.130;2023-06-01T06:29:50;97117.25;;;16.14;55.82
75013;BME280;63567;49.956;20.130;2023-06-01T06:32:16;97111.91;;;16.14;55.41
75013;BME280;63567;49.956;20.130;2023-06-01T06:34:41;97117.53;;;16.25;55.30
75013;BME280;63567;49.956;20.130;2023-06-01T06:37:07;97123.38;;;16.33;55.57
75013;BME280;63567;49.956;20.130;2023-06-01T06:39:33;97123.50;;;16.38;55.85
75013;BME280;63567;49.956;20.130;2023-06-01T06:41:59;97122.41;;;16.46;55.48
75013;BME280;63567;49.956;20.130;2023-06-01T06:44:26;97117.22;;;16.51;55.92
75013;BME280;63567;49.956;20.130;2023-06-01T06:46:51;97120.38;;;16.60;56.09
75013;BME280;63567;49.956;20.130;2023-06-01T06:49:16;97111.50;;;16.66;56.37
75013;BME280;63567;49.956;20.130;2023-06-01T06:51:43;97109.56;;;16.73;55.21
75013;BME280;63567;49.956;20.130;2023-06-01T06:54:08;97117.25;;;16.81;55.20
75013;BME280;63567;49.956;20.130;2023-06-01T06:56:34;97107.78;;;16.86;55.08
75013;BME280;63567;49.956;20.130;2023-06-01T06:58:59;97117.88;;;16.95;55.00
75013;BME280;63567;49.956;20.130;2023-06-01T07:01:24;97112.91;;;16.99;55.08
75013;BME280;63567;49.956;20.130;2023-06-01T07:03:51;97112.81;;;17.06;55.26
75013;BME280;63567;49.956;20.130;2023-06-01T07:06:17;97098.94;;;17.03;55.29
75013;BME280;63567;49.956;20.130;2023-06-01T07:08:42;97115.44;;;17.24;55.22
75013;BME280;63567;49.956;20.130;2023-06-01T07:11:07;97106.75;;;17.29;54.28
75013;BME280;63567;49.956;20.130;2023-06-01T07:13:33;97114.75;;;17.40;54.63
75013;BME280;63567;49.956;20.130;2023-06-01T07:15:58;97097.38;;;17.38;54.25
75013;BME280;63567;49.956;20.130;2023-06-01T07:18:23;97101.19;;;17.54;53.95
75013;BME280;63567;49.956;20.130;2023-06-01T07:20:48;97108.63;;;17.63;54.14
75013;BME280;63567;49.956;20.130;2023-06-01T07:23:14;97109.31;;;17.71;54.59
75013;BME280;63567;49.956;20.130;2023-06-01T07:25:41;97110.00;;;17.78;51.95
75013;BME280;63567;49.956;20.130;2023-06-01T07:28:06;97096.09;;;17.76;51.80
75013;BME280;63567;49.956;20.130;2023-06-01T07:30:34;97107.59;;;17.88;51.43
75013;BME280;63567;49.956;20.130;2023-06-01T07:33:00;97111.06;;;17.89;50.51
75013;BME280;63567;49.956;20.130;2023-06-01T07:35:27;97114.69;;;17.94;50.01
75013;BME280;63567;49.956;20.130;2023-06-01T07:37:53;97103.31;;;17.99;48.61
75013;BME280;63567;49.956;20.130;2023-06-01T07:40:18;97108.88;;;18.09;48.98
75013;BME280;63567;49.956;20.130;2023-06-01T07:42:43;97110.59;;;18.15;48.32
75013;BME280;63567;49.956;20.130;2023-06-01T07:45:09;97113.38;;;18.20;47.25
75013;BME280;63567;49.956;20.130;2023-06-01T07:47:34;97101.75;;;18.26;46.11
75013;BME280;63567;49.956;20.130;2023-06-01T07:50:00;97098.38;;;18.31;45.17
75013;BME280;63567;49.956;20.130;2023-06-01T07:52:25;97092.91;;;18.38;45.10
75013;BME280;63567;49.956;20.130;2023-06-01T07:54:50;97099.03;;;18.50;44.52
75013;BME280;63567;49.956;20.130;2023-06-01T07:57:16;97096.22;;;18.57;45.09
75013;BME280;63567;49.956;20.130;2023-06-01T07:59:42;97100.63;;;18.63;45.16
75013;BME280;63567;49.956;20.130;2023-06-01T08:02:07;97089.06;;;18.74;45.22
75013;BME280;63567;49.956;20.130;2023-06-01T08:04:33;97090.91;;;18.85;44.30
75013;BME280;63567;49.956;20.130;2023-06-01T08:06:58;97095.03;;;18.93;44.35
75013;BME280;63567;49.956;20.130;2023-06-01T08:09:24;97089.31;;;19.01;44.47
75013;BME280;63567;49.956;20.130;2023-06-01T08:11:49;97093.22;;;19.11;44.28
75013;BME280;63567;49.956;20.130;2023-06-01T08:14:16;97089.97;;;19.25;44.06
75013;BME280;63567;49.956;20.130;2023-06-01T08:16:42;97072.91;;;19.26;43.20
75013;BME280;63567;49.956;20.130;2023-06-01T08:19:07;97070.06;;;19.50;43.90
75013;BME280;63567;49.956;20.130;2023-06-01T08:21:34;97089.91;;;19.71;43.38
75013;BME280;63567;49.956;20.130;2023-06-01T08:24:00;97087.38;;;19.81;42.75
75013;BME280;63567;49.956;20.130;2023-06-01T08:26:27;97084.34;;;19.95;43.98
75013;BME280;63567;49.956;20.130;2023-06-01T08:28:52;97075.72;;;20.09;43.26
75013;BME280;63567;49.956;20.130;2023-06-01T08:31:22;97070.19;;;20.16;42.22
75013;BME280;63567;49.956;20.130;2023-06-01T08:33:48;97061.50;;;20.26;42.58
75013;BME280;63567;49.956;20.130;2023-06-01T08:36:14;97074.84;;;20.48;42.93
75013;BME280;63567;49.956;20.130;2023-06-01T08:38:40;97066.63;;;20.55;42.34
75013;BME280;63567;49.956;20.130;2023-06-01T08:41:20;97067.78;;;20.59;40.26
75013;BME280;63567;49.956;20.130;2023-06-01T08:44:01;97061.09;;;20.61;39.46
75013;BME280;63567;49.956;20.130;2023-06-01T08:46:27;97057.56;;;20.83;39.74
75013;BME280;63567;49.956;20.130;2023-06-01T08:48:55;97057.16;;;20.96;40.61
75013;BME280;63567;49.956;20.130;2023-06-01T08:51:22;97067.66;;;21.03;40.70
75013;BME280;63567;49.956;20.130;2023-06-01T08:53:49;97061.53;;;21.07;40.31
75013;BME280;63567;49.956;20.130;2023-06-01T08:56:15;97060.53;;;21.19;39.20
75013;BME280;63567;49.956;20.130;2023-06-01T08:58:41;97060.13;;;21.32;38.72
75013;BME280;63567;49.956;20.130;2023-06-01T09:01:08;97058.56;;;21.36;39.16
75013;BME280;63567;49.956;20.130;2023-06-01T09:03:34;97055.97;;;21.46;39.02
75013;BME280;63567;49.956;20.130;2023-06-01T09:06:00;97050.13;;;21.54;38.72
75013;BME280;63567;49.956;20.130;2023-06-01T09:08:25;97042.72;;;21.67;39.66
75013;BME280;63567;49.956;20.130;2023-06-01T09:10:50;97049.50;;;21.85;37.60
75013;BME280;63567;49.956;20.130;2023-06-01T09:13:36;97040.75;;;22.00;36.43
75013;BME280;63567;49.956;20.130;2023-06-01T09:16:02;97035.97;;;22.17;36.12
75013;BME280;63567;49.956;20.130;2023-06-01T09:18:27;97040.34;;;22.28;34.79
75013;BME280;63567;49.956;20.130;2023-06-01T09:20:52;97024.53;;;22.37;36.47
75013;BME280;63567;49.956;20.130;2023-06-01T09:23:26;97043.66;;;22.56;37.65
75013;BME280;63567;49.956;20.130;2023-06-01T09:26:08;97046.09;;;22.73;36.12
75013;BME280;63567;49.956;20.130;2023-06-01T09:31:38;97038.88;;;22.99;35.39
75013;BME280;63567;49.956;20.130;2023-06-01T09:34:11;97025.47;;;23.14;35.87
75013;BME280;63567;49.956;20.130;2023-06-01T09:36:37;97033.00;;;23.38;36.09
75013;BME280;63567;49.956;20.130;2023-06-01T09:39:07;97031.91;;;23.49;35.97
75013;BME280;63567;49.956;20.130;2023-06-01T09:41:52;97031.63;;;23.51;35.57
75013;BME280;63567;49.956;20.130;2023-06-01T09:44:29;97032.13;;;23.73;35.43
75013;BME280;63567;49.956;20.130;2023-06-01T09:46:59;97025.81;;;24.09;35.63
75013;BME280;63567;49.956;20.130;2023-06-01T09:49:33;97021.44;;;24.33;35.34
75013;BME280;63567;49.956;20.130;2023-06-01T09:54:37;97024.66;;;24.80;36.60
75013;BME280;63567;49.956;20.130;2023-06-01T09:57:04;97025.53;;;25.10;35.87
75013;BME280;63567;49.956;20.130;2023-06-01T09:59:38;97020.47;;;25.37;34.91
75013;BME280;63567;49.956;20.130;2023-06-01T10:02:04;97024.00;;;25.62;34.90
75013;BME280;63567;49.956;20.130;2023-06-01T10:04:29;97021.13;;;25.77;33.44
75013;BME280;63567;49.956;20.130;2023-06-01T10:06:57;97019.41;;;25.92;34.03
75013;BME280;63567;49.956;20.130;2023-06-01T10:09:25;97007.91;;;26.05;32.49
75013;BME280;63567;49.956;20.130;2023-06-01T10:11:52;97012.75;;;26.27;33.98
75013;BME280;63567;49.956;20.130;2023-06-01T10:14:22;97002.91;;;26.36;32.69
75013;BME280;63567;49.956;20.130;2023-06-01T10:16:49;97009.41;;;26.54;31.15
75013;BME280;63567;49.956;20.130;2023-06-01T10:19:15;97004.53;;;26.75;31.94
75013;BME280;63567;49.956;20.130;2023-06-01T10:21:42;97006.13;;;26.95;32.23
75013;BME280;63567;49.956;20.130;2023-06-01T10:24:09;97001.28;;;27.11;30.76
75013;BME280;63567;49.956;20.130;2023-06-01T10:26:40;97005.44;;;27.22;32.19
75013;BME280;63567;49.956;20.130;2023-06-01T10:29:06;97009.97;;;27.41;30.04
75013;BME280;63567;49.956;20.130;2023-06-01T10:31:42;97008.50;;;27.49;29.65
75013;BME280;63567;49.956;20.130;2023-06-01T10:34:09;96995.69;;;27.54;28.45
75013;BME280;63567;49.956;20.130;2023-06-01T10:39:29;96996.13;;;27.89;29.35
75013;BME280;63567;49.956;20.130;2023-06-01T10:52:38;96988.22;;;28.79;28.86
75013;BME280;63567;49.956;20.130;2023-06-01T10:57:34;96978.34;;;29.06;26.62
75013;BME280;63567;49.956;20.130;2023-06-01T11:00:23;96970.19;;;29.20;25.23
75013;BME280;63567;49.956;20.130;2023-06-01T11:03:02;96974.41;;;29.35;25.28
75013;BME280;63567;49.956;20.130;2023-06-01T11:21:18;96953.78;;;31.18;24.59
75013;BME280;63567;49.956;20.130;2023-06-01T11:23:45;96957.88;;;31.42;22.91
75013;BME280;63567;49.956;20.130;2023-06-01T11:26:14;96956.28;;;31.41;21.88
75013;BME280;63567;49.956;20.130;2023-06-01T11:28:41;96949.38;;;31.52;21.20
75013;BME280;63567;49.956;20.130;2023-06-01T11:31:09;96944.03;;;31.64;21.92
75013;BME280;63567;49.956;20.130;2023-06-01T11:33:38;96945.22;;;31.84;21.61
75013;BME280;63567;49.956;20.130;2023-06-01T11:36:04;96942.44;;;32.23;22.39
75013;BME280;63567;49.956;20.130;2023-06-01T11:38:41;96934.31;;;32.35;21.99
75013;BME280;63567;49.956;20.130;2023-06-01T11:41:07;96934.88;;;32.70;22.28
75013;BME280;63567;49.956;20.130;2023-06-01T11:43:34;96928.44;;;32.87;20.97
75013;BME280;63567;49.956;20.130;2023-06-01T11:46:04;96920.63;;;32.98;20.75
75013;BME280;63567;49.956;20.130;2023-06-01T11:48:30;96925.59;;;33.17;19.59
75013;BME280;63567;49.956;20.130;2023-06-01T11:50:56;96932.19;;;33.28;19.80
75013;BME280;63567;49.956;20.130;2023-06-01T11:53:22;96932.00;;;33.46;20.43
75013;BME280;63567;49.956;20.130;2023-06-01T11:55:49;96921.75;;;33.43;19.57
75013;BME280;63567;49.956;20.130;2023-06-01T11:58:24;96928.63;;;33.61;20.46
75013;BME280;63567;49.956;20.130;2023-06-01T12:00:49;96921.00;;;33.79;20.69
75013;BME280;63567;49.956;20.130;2023-06-01T12:03:14;96908.41;;;34.03;19.61
75013;BME280;63567;49.956;20.130;2023-06-01T12:05:41;96918.34;;;34.07;18.42
75013;BME280;63567;49.956;20.130;2023-06-01T12:08:21;96905.59;;;33.99;18.10
75013;BME280;63567;49.956;20.130;2023-06-01T12:10:48;96912.53;;;34.21;18.48
75013;BME280;63567;49.956;20.130;2023-06-01T12:13:15;96898.91;;;34.37;18.44
75013;BME280;63567;49.956;20.130;2023-06-01T12:15:40;96894.63;;;34.52;17.87
75013;BME280;63567;49.956;20.130;2023-06-01T12:18:06;96902.69;;;34.73;18.90
75013;BME280;63567;49.956;20.130;2023-06-01T12:20:36;96899.38;;;34.67;18.63
75013;BME280;63567;49.956;20.130;2023-06-01T12:23:15;96891.91;;;34.80;17.71
75013;BME280;63567;49.956;20.130;2023-06-01T12:25:55;96897.38;;;34.80;17.61
75013;BME280;63567;49.956;20.130;2023-06-01T12:28:22;96896.25;;;34.81;17.03
75013;BME280;63567;49.956;20.130;2023-06-01T12:30:48;96889.97;;;34.81;17.18
75013;BME280;63567;49.956;20.130;2023-06-01T12:33:31;96888.66;;;34.90;16.06
75013;BME280;63567;49.956;20.130;2023-06-01T12:35:57;96888.56;;;34.87;16.05
75013;BME280;63567;49.956;20.130;2023-06-01T12:38:23;96886.03;;;34.94;15.98
75013;BME280;63567;49.956;20.130;2023-06-01T12:41:08;96872.25;;;34.90;17.96
75013;BME280;63567;49.956;20.130;2023-06-01T12:43:43;96877.91;;;34.97;16.97
75013;BME280;63567;49.956;20.130;2023-06-01T12:46:17;96873.59;;;35.12;17.07
75013;BME280;63567;49.956;20.130;2023-06-01T12:48:43;96881.81;;;35.28;16.64
75013;BME280;63567;49.956;20.130;2023-06-01T12:51:09;96884.28;;;35.49;17.06
75013;BME280;63567;49.956;20.130;2023-06-01T12:53:35;96876.44;;;35.64;16.65
75013;BME280;63567;49.956;20.130;2023-06-01T12:56:01;96871.22;;;35.74;17.11
75013;BME280;63567;49.956;20.130;2023-06-01T12:58:27;96863.00;;;35.94;16.41
75013;BME280;63567;49.956;20.130;2023-06-01T13:00:53;96865.31;;;35.92;17.16
75013;BME280;63567;49.956;20.130;2023-06-01T13:03:19;96870.22;;;36.02;17.35
75013;BME280;63567;49.956;20.130;2023-06-01T13:05:45;96863.88;;;35.98;16.67
75013;BME280;63567;49.956;20.130;2023-06-01T13:08:12;96852.75;;;35.91;16.59
75013;BME280;63567;49.956;20.130;2023-06-01T13:10:37;96864.50;;;35.91;16.54
75013;BME280;63567;49.956;20.130;2023-06-01T13:13:03;96862.59;;;35.92;15.92
75013;BME280;63567;49.956;20.130;2023-06-01T13:15:28;96844.25;;;35.96;14.71
75013;BME280;63567;49.956;20.130;2023-06-01T13:17:53;96855.28;;;35.99;15.17
75013;BME280;63567;49.956;20.130;2023-06-01T13:20:21;96858.59;;;36.09;15.19
75013;BME280;63567;49.956;20.130;2023-06-01T13:22:47;96856.84;;;36.16;16.05
75013;BME280;63567;49.956;20.130;2023-06-01T13:25:13;96832.50;;;36.34;15.56
75013;BME280;63567;49.956;20.130;2023-06-01T13:27:39;96838.84;;;36.38;16.46
75013;BME280;63567;49.956;20.130;2023-06-01T13:30:05;96848.38;;;36.45;15.75
75013;BME280;63567;49.956;20.130;2023-06-01T13:32:30;96846.28;;;36.57;16.25
75013;BME280;63567;49.956;20.130;2023-06-01T13:34:56;96840.44;;;36.78;15.65